Time;durP1;ratioP1;P1;durP2;ratioP2;P2;SDS_P1;SDS_P2;PMS_P1;PMS_P2;Temp;Humidity;BMP_temperature;BMP_pressure;BME280_temperature;BME280_humidity;BME280_pressure;Samples;Min_cycle;Max_cycle;Signal;HPM_P1;HPM_P2
2022/03/14 00:02:25;;;;;;;12.67;10.60;;;8.40;62.70;;;;;;5060229;28;20273;-79
2022/03/14 00:04:51;;;;;;;13.80;10.60;;;9.20;62.60;;;;;;5065024;28;20700;-79
2022/03/14 00:07:17;;;;;;;15.18;11.00;;;9.20;62.00;;;;;;5055643;28;20173;-79
2022/03/14 00:09:43;;;;;;;11.55;9.60;;;9.30;61.70;;;;;;5072905;28;20177;-78
2022/03/14 00:12:10;;;;;;;13.93;10.27;;;9.00;62.20;;;;;;5068911;28;20739;-79
2022/03/14 00:14:35;;;;;;;12.63;10.05;;;8.90;61.80;;;;;;5046542;28;20205;-78
2022/03/14 00:17:08;;;;;;;11.90;9.50;;;9.00;61.40;;;;;;5055290;28;20582;-78
2022/03/14 00:19:34;;;;;;;13.15;9.88;;;9.30;61.40;;;;;;5060429;28;20249;-78
2022/03/14 00:22:00;;;;;;;9.93;8.87;;;8.90;60.80;;;;;;5065301;28;20188;-78
2022/03/14 00:24:26;;;;;;;13.90;10.37;;;9.10;60.90;;;;;;5054472;28;21970;-78
2022/03/14 00:26:54;;;;;;;11.20;8.77;;;8.80;60.80;;;;;;5062131;28;20178;-78
2022/03/14 00:29:21;;;;;;;14.10;9.95;;;9.50;61.50;;;;;;5050783;28;20209;-79
2022/03/14 00:31:46;;;;;;;14.52;9.55;;;9.50;61.30;;;;;;5063385;28;20209;-78
2022/03/14 00:34:14;;;;;;;12.50;9.60;;;9.20;60.20;;;;;;5053698;28;20635;-78
2022/03/14 00:36:41;;;;;;;13.20;9.48;;;9.40;61.10;;;;;;5069765;28;20182;-79
2022/03/14 00:39:06;;;;;;;12.45;9.75;;;9.50;61.10;;;;;;5042627;28;20636;-79
2022/03/14 00:41:32;;;;;;;13.00;9.67;;;9.70;60.60;;;;;;5054816;28;20260;-79
2022/03/14 00:43:58;;;;;;;12.97;9.80;;;9.50;60.10;;;;;;5064223;28;20231;-79
2022/03/14 00:46:23;;;;;;;11.43;9.10;;;10.00;59.70;;;;;;5066062;28;20204;-78
2022/03/14 00:48:49;;;;;;;12.03;10.53;;;9.60;60.50;;;;;;5053554;28;20179;-78
2022/03/14 00:51:15;;;;;;;14.63;9.20;;;8.90;60.30;;;;;;5073653;28;20227;-79
2022/03/14 00:53:41;;;;;;;12.02;10.50;;;9.60;60.70;;;;;;5062521;28;20178;-79
2022/03/14 00:56:07;;;;;;;14.33;9.67;;;9.80;60.90;;;;;;5067224;28;20259;-79
2022/03/14 00:58:33;;;;;;;13.40;10.00;;;9.70;58.80;;;;;;5069999;28;20268;-79
2022/03/14 01:00:59;;;;;;;11.50;10.02;;;10.10;57.20;;;;;;5045042;28;20670;-78
2022/03/14 01:03:25;;;;;;;11.98;9.07;;;9.90;59.60;;;;;;5050279;28;20199;-79
2022/03/14 01:05:50;;;;;;;13.70;9.07;;;9.90;59.90;;;;;;5066721;28;20280;-79
2022/03/14 01:08:16;;;;;;;12.93;9.80;;;9.50;59.30;;;;;;5062921;28;20192;-79
2022/03/14 01:10:42;;;;;;;10.38;9.25;;;9.80;59.50;;;;;;5040003;28;20211;-79
2022/03/14 01:13:11;;;;;;;11.20;9.70;;;10.00;58.60;;;;;;5051641;28;20213;-79
2022/03/14 01:15:37;;;;;;;9.63;8.65;;;10.10;58.60;;;;;;5064988;28;20227;-78
2022/03/14 01:18:04;;;;;;;14.47;10.47;;;10.50;58.30;;;;;;5071539;28;20226;-78
2022/03/14 01:20:31;;;;;;;13.15;10.73;;;10.40;58.20;;;;;;5066289;28;20179;-78
2022/03/14 01:22:57;;;;;;;15.05;11.60;;;10.30;59.40;;;;;;5033110;28;20191;-78
2022/03/14 01:25:26;;;;;;;16.30;11.47;;;10.40;61.50;;;;;;5056686;28;20544;-78
2022/03/14 01:27:52;;;;;;;13.90;11.45;;;10.80;63.40;;;;;;5046930;28;20289;-78
2022/03/14 01:30:19;;;;;;;14.45;11.75;;;10.60;63.30;;;;;;5055309;28;20183;-78
2022/03/14 01:32:46;;;;;;;14.75;11.95;;;11.10;64.60;;;;;;5075628;28;20584;-78
2022/03/14 01:35:11;;;;;;;14.45;11.52;;;10.80;64.30;;;;;;5049103;28;20210;-79
2022/03/14 01:37:37;;;;;;;16.07;12.30;;;10.70;64.60;;;;;;5055644;28;20192;-78
2022/03/14 01:40:03;;;;;;;15.00;12.90;;;10.90;65.30;;;;;;5063697;28;20199;-78
2022/03/14 01:42:29;;;;;;;16.33;13.40;;;11.20;69.20;;;;;;5070840;28;20177;-78
2022/03/14 01:44:55;;;;;;;16.93;15.10;;;10.70;71.00;;;;;;5064299;28;20396;-79
2022/03/14 01:47:21;;;;;;;14.63;12.93;;;10.90;73.10;;;;;;5050030;28;20189;-79
2022/03/14 01:49:49;;;;;;;17.40;14.87;;;10.50;75.90;;;;;;5074937;28;20437;-79
2022/03/14 01:52:14;;;;;;;15.40;13.75;;;11.10;79.80;;;;;;5073826;28;20445;-78
2022/03/14 01:54:43;;;;;;;16.00;13.90;;;11.00;81.50;;;;;;5047116;28;20221;-78
2022/03/14 01:57:08;;;;;;;16.10;13.30;;;11.00;82.40;;;;;;5069577;28;20409;-78
2022/03/14 01:59:37;;;;;;;17.13;13.37;;;11.20;83.50;;;;;;5056151;28;20221;-78
2022/03/14 02:02:03;;;;;;;16.23;14.52;;;11.20;84.00;;;;;;5057277;28;20182;-78
2022/03/14 02:04:28;;;;;;;16.03;13.20;;;11.20;86.50;;;;;;5052169;28;20215;-78
2022/03/14 02:06:55;;;;;;;14.83;13.23;;;11.60;88.90;;;;;;5067475;28;21041;-79
2022/03/14 02:09:21;;;;;;;16.42;14.63;;;11.20;90.40;;;;;;5073705;28;20256;-79
2022/03/14 02:12:09;;;;;;;17.17;14.83;;;11.40;91.00;;;;;;5075922;28;20553;-78
2022/03/14 02:14:39;;;;;;;15.05;13.40;;;11.30;90.80;;;;;;5066993;28;20203;-78
2022/03/14 02:17:15;;;;;;;16.35;14.65;;;11.00;91.10;;;;;;5070883;28;20533;-78
2022/03/14 02:19:42;;;;;;;15.18;13.55;;;11.50;91.20;;;;;;5075712;28;20202;-78
2022/03/14 02:22:13;;;;;;;18.35;13.95;;;11.20;90.50;;;;;;5061607;28;20218;-79
2022/03/14 02:24:43;;;;;;;18.00;13.05;;;11.30;89.80;;;;;;5069771;28;20282;-78
2022/03/14 02:27:10;;;;;;;15.23;13.60;;;11.10;89.60;;;;;;5071840;28;20671;-78
2022/03/14 02:29:35;;;;;;;15.40;13.80;;;11.40;88.30;;;;;;5071764;28;20191;-79
2022/03/14 02:32:01;;;;;;;15.33;13.63;;;11.60;87.70;;;;;;5077534;28;20220;-79
2022/03/14 02:34:26;;;;;;;14.70;13.20;;;11.30;86.90;;;;;;5072127;28;20240;-78
2022/03/14 02:36:52;;;;;;;17.47;14.07;;;11.30;88.90;;;;;;5065361;28;20188;-78
2022/03/14 02:39:18;;;;;;;14.60;12.60;;;11.10;86.70;;;;;;5055124;28;20204;-79
2022/03/14 02:41:44;;;;;;;15.53;13.27;;;11.10;86.80;;;;;;5068914;28;20405;-79
2022/03/14 02:44:10;;;;;;;16.95;14.82;;;11.60;90.40;;;;;;5071116;28;20222;-79
2022/03/14 02:46:40;;;;;;;19.93;13.77;;;11.50;90.70;;;;;;5077633;28;20639;-78
2022/03/14 02:49:07;;;;;;;16.83;14.20;;;11.30;90.40;;;;;;5059767;28;20633;-79
2022/03/14 02:51:34;;;;;;;16.55;13.48;;;11.60;90.80;;;;;;5075914;28;20188;-79
2022/03/14 02:54:01;;;;;;;18.33;14.35;;;11.50;90.80;;;;;;5061977;28;20181;-78
2022/03/14 02:56:27;;;;;;;18.63;15.30;;;11.40;91.80;;;;;;5050942;28;20595;-79
2022/03/14 02:58:53;;;;;;;14.10;12.57;;;11.80;94.10;;;;;;5070702;28;20195;-78
2022/03/14 03:01:19;;;;;;;14.10;12.05;;;11.40;95.40;;;;;;5058035;28;20186;-79
2022/03/14 03:03:45;;;;;;;15.27;12.30;;;11.10;96.30;;;;;;5079455;28;20196;-79
2022/03/14 03:06:13;;;;;;;11.93;10.67;;;10.80;97.20;;;;;;5066567;28;20251;-78
2022/03/14 03:08:39;;;;;;;17.23;10.90;;;10.90;98.10;;;;;;5066401;28;20454;-78
2022/03/14 03:11:08;;;;;;;12.38;11.07;;;11.10;99.70;;;;;;5074578;28;20178;-79
2022/03/14 03:13:35;;;;;;;17.42;13.50;;;10.70;99.90;;;;;;5064331;28;20181;-78
2022/03/14 03:16:01;;;;;;;14.90;13.23;;;10.80;99.90;;;;;;5069545;28;20276;-79
2022/03/14 03:18:26;;;;;;;14.70;12.90;;;10.90;99.90;;;;;;5071264;28;20543;-78
2022/03/14 03:20:52;;;;;;;19.43;14.40;;;10.10;99.90;;;;;;5079482;28;20191;-78
2022/03/14 03:23:18;;;;;;;11.90;10.70;;;9.90;99.90;;;;;;5063908;28;20190;-78
2022/03/14 03:25:44;;;;;;;10.40;9.30;;;10.40;99.90;;;;;;5072317;28;20202;-78
2022/03/14 03:28:10;;;;;;;9.83;8.70;;;10.10;99.90;;;;;;5065560;28;20186;-79
2022/03/14 03:30:35;;;;;;;8.67;7.70;;;10.20;99.90;;;;;;5079985;28;20182;-78
2022/03/14 03:33:01;;;;;;;10.33;8.70;;;10.70;99.90;;;;;;5074657;28;20192;-78
2022/03/14 03:35:27;;;;;;;9.57;7.85;;;10.50;99.90;;;;;;5051810;28;21822;-78
2022/03/14 03:37:53;;;;;;;8.70;7.90;;;10.40;99.90;;;;;;5053533;28;20194;-78
2022/03/14 03:40:18;;;;;;;14.77;11.57;;;10.40;99.90;;;;;;5072083;28;20183;-78
2022/03/14 03:42:44;;;;;;;10.60;9.13;;;10.30;99.90;;;;;;5064824;28;20183;-78
2022/03/14 03:45:10;;;;;;;13.03;9.93;;;10.20;99.90;;;;;;5045582;28;20215;-78
2022/03/14 03:47:35;;;;;;;13.55;11.07;;;10.60;99.90;;;;;;5068153;28;20183;-79
2022/03/14 03:50:01;;;;;;;15.17;13.03;;;10.50;99.90;;;;;;5085943;28;20701;-78
2022/03/14 03:52:27;;;;;;;14.20;11.77;;;10.30;99.90;;;;;;5063945;28;20211;-79
2022/03/14 03:54:52;;;;;;;14.83;13.20;;;10.30;99.90;;;;;;5049161;28;20210;-79
2022/03/14 03:57:18;;;;;;;16.77;13.37;;;9.80;99.90;;;;;;5068945;28;20182;-78
2022/03/14 03:59:44;;;;;;;15.33;12.20;;;10.00;99.90;;;;;;5060855;28;20208;-78
2022/03/14 04:02:09;;;;;;;16.40;13.20;;;10.30;99.90;;;;;;5071417;28;20267;-78
2022/03/14 04:04:37;;;;;;;14.90;11.80;;;9.70;99.90;;;;;;5070475;28;20233;-78
2022/03/14 04:07:04;;;;;;;15.23;11.82;;;9.90;99.90;;;;;;5062458;28;20223;-76
2022/03/14 04:09:30;;;;;;;13.63;11.93;;;9.70;99.90;;;;;;5054589;28;20654;-78
2022/03/14 04:11:55;;;;;;;14.57;12.00;;;9.70;99.90;;;;;;5080902;28;20190;-78
2022/03/14 04:14:21;;;;;;;15.93;13.30;;;10.00;99.90;;;;;;5061723;28;20285;-78
2022/03/14 04:16:47;;;;;;;13.90;11.30;;;10.20;99.90;;;;;;5074365;28;20665;-78
2022/03/14 04:19:14;;;;;;;12.30;11.00;;;10.00;99.90;;;;;;5073772;28;20498;-79
2022/03/14 04:21:40;;;;;;;16.83;11.50;;;10.50;99.90;;;;;;5072470;28;20505;-77
2022/03/14 04:24:06;;;;;;;15.07;11.40;;;9.70;99.90;;;;;;5067153;28;20273;-78
2022/03/14 04:26:32;;;;;;;12.45;10.77;;;9.70;99.90;;;;;;5051021;28;20463;-77
2022/03/14 04:28:58;;;;;;;15.00;12.27;;;9.70;99.90;;;;;;5064457;28;20185;-78
2022/03/14 04:31:23;;;;;;;12.00;9.90;;;9.90;99.90;;;;;;5068655;28;20175;-78
2022/03/14 04:33:49;;;;;;;14.33;10.83;;;9.80;99.90;;;;;;5071016;28;20186;-78
2022/03/14 04:36:15;;;;;;;11.67;9.97;;;9.80;99.90;;;;;;5068314;28;20735;-78
2022/03/14 04:38:41;;;;;;;13.63;10.25;;;10.00;99.90;;;;;;5064600;28;20677;-78
2022/03/14 04:41:06;;;;;;;14.10;10.77;;;9.80;99.90;;;;;;5075275;28;20224;-77
2022/03/14 04:43:32;;;;;;;12.53;10.97;;;9.90;99.90;;;;;;5061042;28;20185;-77
2022/03/14 04:45:57;;;;;;;13.17;10.93;;;9.10;99.90;;;;;;5062762;28;20723;-78
2022/03/14 04:48:23;;;;;;;14.23;11.63;;;9.90;99.90;;;;;;5049427;28;20177;-78
2022/03/14 04:50:50;;;;;;;13.87;11.37;;;9.70;99.90;;;;;;5051958;28;20213;-77
2022/03/14 04:53:16;;;;;;;14.52;11.27;;;9.50;99.90;;;;;;5061259;28;20174;-78
2022/03/14 04:55:42;;;;;;;10.33;8.83;;;9.90;99.90;;;;;;5068168;28;20206;-77
2022/03/14 04:58:12;;;;;;;11.70;8.88;;;9.60;99.90;;;;;;5042731;28;20445;-77
2022/03/14 05:00:38;;;;;;;7.85;6.75;;;9.20;99.90;;;;;;5054362;28;20187;-78
2022/03/14 05:03:05;;;;;;;6.18;5.57;;;9.80;99.90;;;;;;5074125;28;20192;-78
2022/03/14 05:05:31;;;;;;;4.70;4.30;;;10.00;99.90;;;;;;5066160;28;20283;-78
2022/03/14 05:07:57;;;;;;;5.17;4.70;;;10.00;99.90;;;;;;5066409;28;20238;-77
2022/03/14 05:10:23;;;;;;;4.70;4.30;;;9.90;99.90;;;;;;5053958;28;20208;-78
2022/03/14 05:12:49;;;;;;;6.40;5.80;;;9.70;99.90;;;;;;5073205;28;20177;-77
2022/03/14 05:15:18;;;;;;;2.50;2.30;;;9.70;99.90;;;;;;5066060;28;20249;-79
2022/03/14 05:17:45;;;;;;;1.60;1.50;;;9.60;99.90;;;;;;5062168;28;20310;-79
2022/03/14 05:20:12;;;;;;;2.88;2.45;;;9.70;99.90;;;;;;5067488;28;20586;-79
2022/03/14 05:22:45;;;;;;;1.58;1.38;;;9.60;99.90;;;;;;5049690;28;20195;-78
2022/03/14 05:25:11;;;;;;;1.45;1.20;;;9.60;99.90;;;;;;5055630;28;20248;-78
2022/03/14 05:27:37;;;;;;;1.25;1.17;;;9.60;99.90;;;;;;5042585;28;20241;-78
2022/03/14 05:30:06;;;;;;;1.50;1.40;;;9.50;99.90;;;;;;5049207;28;20177;-79
2022/03/14 05:32:31;;;;;;;1.20;1.10;;;9.60;99.90;;;;;;5067389;28;20181;-79
2022/03/14 05:34:57;;;;;;;4.50;1.67;;;9.70;99.90;;;;;;5069346;28;20217;-78
2022/03/14 05:37:22;;;;;;;2.30;1.77;;;9.50;99.90;;;;;;5066932;28;20584;-79
2022/03/14 05:39:49;;;;;;;2.20;2.00;;;9.60;99.90;;;;;;5056926;28;20195;-79
2022/03/14 05:42:15;;;;;;;1.40;1.30;;;9.70;99.90;;;;;;5070484;28;20518;-78
2022/03/14 05:44:42;;;;;;;2.17;1.83;;;9.20;99.90;;;;;;5052168;28;20215;-78
2022/03/14 05:47:08;;;;;;;1.02;1.00;;;9.00;99.90;;;;;;5072440;28;20212;-78
2022/03/14 05:49:33;;;;;;;2.13;1.40;;;9.40;99.90;;;;;;5074177;28;20220;-79
2022/03/14 05:51:59;;;;;;;1.90;1.77;;;9.20;99.90;;;;;;5062877;28;20182;-78
2022/03/14 05:54:25;;;;;;;0.93;0.93;;;9.30;99.90;;;;;;5079784;28;20201;-79
2022/03/14 05:56:50;;;;;;;1.20;1.10;;;9.30;99.90;;;;;;5066030;28;20178;-79
2022/03/14 05:59:16;;;;;;;1.20;1.10;;;9.60;99.90;;;;;;5070461;28;20226;-79
2022/03/14 06:01:42;;;;;;;1.20;1.10;;;9.20;99.90;;;;;;5068123;28;20256;-78
2022/03/14 06:04:07;;;;;;;1.10;0.90;;;9.30;99.90;;;;;;5072389;28;20176;-78
2022/03/14 06:06:34;;;;;;;1.03;0.93;;;9.50;99.90;;;;;;5054347;28;20564;-79
2022/03/14 06:08:59;;;;;;;1.58;1.45;;;9.10;99.90;;;;;;5052458;28;20181;-78
2022/03/14 06:11:27;;;;;;;1.37;1.17;;;9.60;99.90;;;;;;5067870;28;20392;-79
2022/03/14 06:13:53;;;;;;;1.30;1.20;;;9.70;99.90;;;;;;5075785;28;20238;-79
2022/03/14 06:16:18;;;;;;;1.00;1.00;;;9.70;99.90;;;;;;5074395;28;20613;-79
2022/03/14 06:18:44;;;;;;;1.20;0.97;;;9.60;99.90;;;;;;5077969;28;20651;-79
2022/03/14 06:21:09;;;;;;;1.20;1.10;;;9.30;99.90;;;;;;5067059;28;20735;-79
2022/03/14 06:23:35;;;;;;;0.90;0.80;;;9.10;99.90;;;;;;5048171;28;20746;-79
2022/03/14 06:26:01;;;;;;;1.20;1.00;;;9.20;99.90;;;;;;5072686;28;20261;-79
2022/03/14 06:28:26;;;;;;;1.23;1.10;;;9.10;99.90;;;;;;5071446;28;20773;-79
2022/03/14 06:30:52;;;;;;;1.93;1.10;;;8.90;99.90;;;;;;5051405;28;20184;-79
2022/03/14 06:33:17;;;;;;;2.37;1.50;;;9.40;99.90;;;;;;5069561;28;20169;-79
2022/03/14 06:35:43;;;;;;;3.60;1.60;;;9.10;99.90;;;;;;5073513;28;20217;-79
2022/03/14 06:38:09;;;;;;;1.87;1.17;;;9.20;99.90;;;;;;5060101;28;20194;-79
2022/03/14 06:40:35;;;;;;;1.10;1.00;;;9.50;99.90;;;;;;5075246;28;20184;-79
2022/03/14 06:43:01;;;;;;;1.10;1.00;;;9.10;99.90;;;;;;5064194;28;20238;-80
2022/03/14 06:45:26;;;;;;;1.03;0.90;;;9.20;99.90;;;;;;5072227;28;20223;-81
2022/03/14 06:47:54;;;;;;;2.17;1.27;;;9.10;99.90;;;;;;5067309;28;20192;-80
2022/03/14 06:50:21;;;;;;;0.90;0.90;;;9.30;99.90;;;;;;5076006;28;20187;-80
2022/03/14 06:52:47;;;;;;;1.33;1.20;;;9.10;99.90;;;;;;5071328;28;20173;-78
2022/03/14 06:55:13;;;;;;;1.17;1.07;;;8.90;99.90;;;;;;5064126;28;20205;-82
2022/03/14 06:57:39;;;;;;;1.20;1.10;;;9.20;99.90;;;;;;5049386;28;20185;-80
2022/03/14 07:00:06;;;;;;;1.50;1.13;;;9.10;99.90;;;;;;5064392;28;20186;-81
2022/03/14 07:02:31;;;;;;;1.30;1.00;;;9.20;99.90;;;;;;5041301;28;20186;-83
2022/03/14 07:04:57;;;;;;;2.13;1.40;;;8.80;99.90;;;;;;5066821;28;20215;-84
2022/03/14 07:07:23;;;;;;;1.90;1.03;;;9.10;99.90;;;;;;5065858;28;20325;-84
2022/03/14 07:09:48;;;;;;;1.67;1.10;;;9.50;99.90;;;;;;5069336;28;20288;-82
2022/03/14 07:12:14;;;;;;;1.77;1.00;;;9.40;99.90;;;;;;5047681;28;20181;-84
2022/03/14 07:14:40;;;;;;;1.13;1.03;;;9.40;99.90;;;;;;5068917;28;20201;-84
2022/03/14 07:17:06;;;;;;;0.90;0.87;;;9.40;99.90;;;;;;5067859;28;20190;-85
2022/03/14 07:19:32;;;;;;;1.73;0.90;;;9.50;99.90;;;;;;5047777;28;20182;-84
2022/03/14 07:21:58;;;;;;;1.20;1.08;;;10.50;99.90;;;;;;5067501;28;20262;-83
2022/03/14 07:24:23;;;;;;;1.03;0.90;;;11.90;99.90;;;;;;5069254;28;20691;-85
2022/03/14 07:26:49;;;;;;;1.83;1.17;;;13.60;97.70;;;;;;5051735;28;20212;-85
2022/03/14 07:29:15;;;;;;;1.95;0.68;;;13.90;95.60;;;;;;5041183;28;20181;-88
2022/03/14 07:31:41;;;;;;;1.30;1.20;;;14.00;94.50;;;;;;5062552;28;20644;-87
2022/03/14 07:34:07;;;;;;;1.42;0.80;;;14.30;93.30;;;;;;5069568;28;20180;-88
2022/03/14 07:36:37;;;;;;;1.30;0.77;;;15.40;92.20;;;;;;5059444;28;20204;-89
2022/03/14 07:39:04;;;;;;;1.67;0.70;;;15.90;90.80;;;;;;5056503;28;20200;-87
2022/03/14 07:41:29;;;;;;;1.00;0.90;;;16.60;89.00;;;;;;5049995;28;20302;-88
2022/03/14 07:43:55;;;;;;;1.30;0.83;;;17.20;83.00;;;;;;5040187;28;20184;-89
2022/03/14 07:46:21;;;;;;;2.60;0.90;;;17.50;81.20;;;;;;5061802;28;20224;-86
2022/03/14 07:48:46;;;;;;;1.10;0.70;;;18.10;79.70;;;;;;5055603;28;20811;-87
2022/03/14 07:51:12;;;;;;;1.10;0.90;;;17.50;78.10;;;;;;5060460;28;20281;-87
2022/03/14 07:53:38;;;;;;;1.20;0.90;;;17.20;79.50;;;;;;5053001;28;20183;-87
2022/03/14 07:56:04;;;;;;;0.80;0.80;;;17.00;79.40;;;;;;5043767;28;20244;-88
2022/03/14 07:58:29;;;;;;;1.77;0.90;;;17.00;79.10;;;;;;5054712;28;20452;-81
2022/03/14 08:00:55;;;;;;;0.87;0.70;;;17.60;79.80;;;;;;5037501;28;20618;-81
2022/03/14 08:03:23;;;;;;;1.00;0.80;;;16.80;77.40;;;;;;5067695;28;20189;-82
2022/03/14 08:05:54;;;;;;;2.58;1.10;;;19.20;78.90;;;;;;5068285;28;20212;-80
2022/03/14 08:08:19;;;;;;;1.73;0.68;;;17.30;77.60;;;;;;5050747;28;20669;-81
2022/03/14 08:10:47;;;;;;;1.20;1.00;;;18.60;76.30;;;;;;5064845;28;20205;-81
2022/03/14 08:13:12;;;;;;;2.97;1.05;;;18.50;74.00;;;;;;5064322;28;20680;-80
2022/03/14 08:15:38;;;;;;;0.90;0.90;;;18.80;74.40;;;;;;5035494;28;20214;-81
2022/03/14 08:18:06;;;;;;;1.20;1.03;;;18.40;73.90;;;;;;5050762;28;20667;-81
2022/03/14 08:20:32;;;;;;;2.25;1.02;;;18.60;73.60;;;;;;5050239;28;20454;-80
2022/03/14 08:23:00;;;;;;;1.10;1.00;;;17.70;74.90;;;;;;5048056;28;20189;-81
2022/03/14 08:25:26;;;;;;;2.40;1.65;;;17.30;75.80;;;;;;5050761;28;20726;-81
2022/03/14 08:27:52;;;;;;;0.85;0.85;;;17.80;77.60;;;;;;5066008;28;20621;-81
2022/03/14 08:30:23;;;;;;;2.42;1.25;;;17.60;75.40;;;;;;5066760;28;20212;-80
2022/03/14 08:32:50;;;;;;;1.35;1.23;;;17.30;74.10;;;;;;5068051;28;20188;-82
2022/03/14 08:35:20;;;;;;;2.45;1.30;;;16.70;72.90;;;;;;5068890;28;20208;-83
2022/03/14 08:37:48;;;;;;;1.50;1.10;;;16.00;74.10;;;;;;5066031;28;20186;-80
2022/03/14 08:40:17;;;;;;;1.60;1.50;;;15.50;75.50;;;;;;5048790;28;20228;-81
2022/03/14 08:42:44;;;;;;;5.72;1.20;;;14.30;75.80;;;;;;5066205;28;20181;-81
2022/03/14 08:45:10;;;;;;;1.25;1.13;;;13.50;79.30;;;;;;5064951;28;20220;-82
2022/03/14 08:47:36;;;;;;;3.45;1.20;;;13.90;81.30;;;;;;5046654;28;20186;-82
2022/03/14 08:50:04;;;;;;;4.55;1.40;;;13.30;81.50;;;;;;5046100;28;20185;-82
2022/03/14 08:52:30;;;;;;;1.80;1.25;;;12.70;83.50;;;;;;5060001;28;20699;-82
2022/03/14 08:54:56;;;;;;;1.67;1.10;;;13.00;85.40;;;;;;5048808;28;20216;-80
2022/03/14 08:57:22;;;;;;;1.70;1.20;;;12.50;84.90;;;;;;5054116;28;20198;-80
2022/03/14 08:59:48;;;;;;;2.83;1.07;;;11.70;84.40;;;;;;5051114;28;20185;-80
2022/03/14 09:02:13;;;;;;;1.93;1.20;;;12.50;86.20;;;;;;5068068;28;20203;-82
2022/03/14 09:04:39;;;;;;;3.03;1.10;;;12.10;84.20;;;;;;5072110;28;20303;-80
2022/03/14 09:07:05;;;;;;;3.87;1.33;;;12.30;83.50;;;;;;5054812;28;20538;-81
2022/03/14 09:09:31;;;;;;;1.60;0.90;;;12.70;83.40;;;;;;5059950;28;20181;-81
2022/03/14 09:11:57;;;;;;;2.30;1.10;;;12.90;83.90;;;;;;5065025;28;20199;-81
2022/03/14 09:14:22;;;;;;;3.40;1.17;;;12.60;83.40;;;;;;5048296;28;20204;-81
2022/03/14 09:16:49;;;;;;;3.13;1.37;;;12.80;83.50;;;;;;5048027;28;20563;-85
2022/03/14 09:19:14;;;;;;;2.50;1.08;;;13.20;83.00;;;;;;5051793;28;20196;-89
2022/03/14 09:21:40;;;;;;;2.60;1.17;;;13.70;80.90;;;;;;5049651;28;20177;-90
2022/03/14 09:24:06;;;;;;;6.10;1.33;;;13.90;79.80;;;;;;5057615;28;20212;-85
2022/03/14 09:26:32;;;;;;;2.50;0.87;;;14.80;76.60;;;;;;5052479;28;20236;-90
2022/03/14 09:28:59;;;;;;;3.15;1.15;;;15.10;74.30;;;;;;5078825;28;20259;-89
2022/03/14 09:31:25;;;;;;;2.95;1.10;;;15.30;73.80;;;;;;5064013;28;20192;-87
2022/03/14 09:33:51;;;;;;;3.13;1.38;;;15.90;70.20;;;;;;5069327;28;20201;-91
2022/03/14 09:36:17;;;;;;;2.65;1.20;;;17.30;68.10;;;;;;5089850;28;20254;-91
2022/03/14 09:38:43;;;;;;;2.45;1.20;;;17.00;66.80;;;;;;5063588;28;20212;-90
2022/03/14 09:41:11;;;;;;;4.45;1.75;;;17.20;66.20;;;;;;5056124;28;20468;-92
2022/03/14 09:43:39;;;;;;;3.28;1.45;;;17.60;64.90;;;;;;5049365;28;20199;-92
2022/03/14 09:46:07;;;;;;;5.55;1.70;;;18.50;64.30;;;;;;5055774;28;20290;-89
2022/03/14 09:48:39;;;;;;;4.80;1.80;;;18.90;61.50;;;;;;5055883;28;20177;-85
2022/03/14 09:51:06;;;;;;;4.28;2.08;;;19.90;59.20;;;;;;5043568;28;20320;-86
2022/03/14 09:53:34;;;;;;;3.23;1.57;;;20.10;58.20;;;;;;5049908;28;20208;-85
2022/03/14 09:56:00;;;;;;;3.93;1.13;;;20.10;56.80;;;;;;5050043;28;20468;-82
2022/03/14 09:58:26;;;;;;;1.60;1.03;;;21.20;54.30;;;;;;5048271;28;20553;-85
2022/03/14 10:00:51;;;;;;;3.00;1.50;;;20.40;53.90;;;;;;5051338;28;20485;-86
2022/03/14 10:03:18;;;;;;;3.77;1.70;;;20.60;53.80;;;;;;5047078;28;20471;-87
2022/03/14 10:05:44;;;;;;;7.80;1.50;;;21.10;53.50;;;;;;5054908;28;20216;-91
2022/03/14 10:08:14;;;;;;;1.93;1.60;;;20.40;53.50;;;;;;5070769;28;20435;-88
2022/03/14 10:10:40;;;;;;;2.57;1.20;;;20.60;52.30;;;;;;5051529;28;20521;-86
2022/03/14 10:13:08;;;;;;;2.63;1.00;;;21.00;51.60;;;;;;5050527;28;20470;-86
2022/03/14 10:15:42;;;;;;;2.47;1.30;;;21.00;50.30;;;;;;5054013;28;20532;-85
2022/03/14 10:18:10;;;;;;;5.13;1.27;;;20.80;50.50;;;;;;5052990;28;20464;-87
2022/03/14 10:20:37;;;;;;;1.73;1.20;;;20.50;50.60;;;;;;5056062;28;20443;-85
2022/03/14 10:23:03;;;;;;;1.77;1.10;;;20.20;50.90;;;;;;5044155;28;20439;-85
2022/03/14 10:25:30;;;;;;;2.55;1.40;;;21.10;51.00;;;;;;5047374;28;20463;-88
2022/03/14 10:27:57;;;;;;;3.73;1.40;;;20.70;51.80;;;;;;5053495;28;20189;-88
2022/03/14 10:30:29;;;;;;;2.30;1.10;;;21.00;51.50;;;;;;5049074;28;20435;-90
2022/03/14 10:33:08;;;;;;;1.30;0.90;;;20.90;51.20;;;;;;5052195;28;20431;-88
2022/03/14 10:35:35;;;;;;;2.40;1.70;;;21.40;51.60;;;;;;5040948;28;20494;-88
2022/03/14 10:38:04;;;;;;;1.83;1.00;;;21.60;50.30;;;;;;5054327;28;20568;-88
2022/03/14 10:40:32;;;;;;;1.97;1.00;;;20.70;50.10;;;;;;5048142;28;20446;-86
2022/03/14 10:42:57;;;;;;;2.97;1.13;;;20.90;50.80;;;;;;5064168;28;20443;-86
2022/03/14 10:45:23;;;;;;;2.97;1.40;;;19.60;52.10;;;;;;5051401;28;20236;-85
2022/03/14 10:47:54;;;;;;;2.70;1.70;;;18.60;52.70;;;;;;5053767;28;20681;-84
2022/03/14 10:50:35;;;;;;;1.90;0.90;;;19.10;52.90;;;;;;5046992;28;20181;-86
2022/03/14 10:53:10;;;;;;;3.60;1.40;;;18.80;52.70;;;;;;5066621;28;20668;-89
2022/03/14 10:55:38;;;;;;;2.15;1.10;;;19.00;51.40;;;;;;5060952;28;20296;-90
2022/03/14 10:58:14;;;;;;;2.95;1.73;;;19.20;51.30;;;;;;5050332;28;20188;-86
2022/03/14 11:00:44;;;;;;;2.70;1.08;;;19.50;50.20;;;;;;5055839;28;20627;-88
2022/03/14 11:03:10;;;;;;;3.72;2.10;;;19.20;49.70;;;;;;5065714;28;20493;-91
2022/03/14 11:05:44;;;;;;;3.10;1.43;;;19.40;50.40;;;;;;5045425;28;20223;-91
2022/03/14 11:08:26;;;;;;;2.35;0.95;;;19.80;49.30;;;;;;5067485;28;20249;-91
2022/03/14 11:10:51;;;;;;;2.28;0.95;;;20.40;48.30;;;;;;5051680;28;20189;-90
2022/03/14 11:13:17;;;;;;;2.97;1.27;;;20.50;49.00;;;;;;5047081;28;20204;-87
2022/03/14 11:15:42;;;;;;;1.80;1.47;;;20.50;48.30;;;;;;5052890;28;20687;-89
2022/03/14 11:18:08;;;;;;;4.13;1.63;;;20.40;48.50;;;;;;5076612;28;20461;-90
2022/03/14 11:20:34;;;;;;;2.00;1.00;;;19.90;49.20;;;;;;5065681;28;20180;-88
2022/03/14 11:23:00;;;;;;;1.60;0.97;;;20.60;48.70;;;;;;5065646;28;20187;-86
2022/03/14 11:25:26;;;;;;;1.13;0.80;;;20.40;48.10;;;;;;5051921;28;20994;-90
2022/03/14 11:27:55;;;;;;;3.03;1.07;;;20.50;48.20;;;;;;5052324;28;20538;-89
2022/03/14 11:30:21;;;;;;;2.53;1.00;;;20.30;48.80;;;;;;5063883;28;20507;-87
2022/03/14 11:32:47;;;;;;;1.80;1.17;;;20.10;48.80;;;;;;5050276;28;20196;-86
2022/03/14 11:35:13;;;;;;;1.45;1.08;;;20.00;48.80;;;;;;5051593;28;21112;-86
2022/03/14 11:37:42;;;;;;;1.90;1.10;;;20.10;49.80;;;;;;5064353;28;20217;-89
2022/03/14 11:40:08;;;;;;;1.45;1.20;;;19.50;51.70;;;;;;5042226;28;20214;-80
2022/03/14 11:42:34;;;;;;;3.70;1.25;;;19.00;51.30;;;;;;5043433;28;20192;-80
2022/03/14 11:45:03;;;;;;;4.25;1.15;;;19.40;51.30;;;;;;5038783;28;20262;-82
2022/03/14 11:47:29;;;;;;;2.80;1.40;;;19.20;51.10;;;;;;5049969;28;20516;-81
2022/03/14 11:49:55;;;;;;;5.00;1.05;;;18.90;50.70;;;;;;5050949;28;20188;-81
2022/03/14 11:52:33;;;;;;;1.57;1.20;;;18.30;52.00;;;;;;5064289;28;20911;-80
2022/03/14 11:55:00;;;;;;;2.38;1.02;;;18.00;52.80;;;;;;5065592;28;20539;-81
2022/03/14 11:57:52;;;;;;;1.52;1.05;;;18.00;51.90;;;;;;5067180;28;20669;-81
2022/03/14 12:00:32;;;;;;;1.63;1.10;;;17.90;51.60;;;;;;5052131;28;20197;-81
2022/03/14 12:03:06;;;;;;;2.55;1.33;;;18.60;51.90;;;;;;5066540;28;20187;-81
2022/03/14 12:05:32;;;;;;;2.63;1.20;;;18.70;51.60;;;;;;5050249;28;20748;-81
2022/03/14 12:08:06;;;;;;;2.23;1.00;;;18.60;51.50;;;;;;5065385;28;20204;-81
2022/03/14 12:10:34;;;;;;;2.45;1.10;;;19.50;51.10;;;;;;5065146;28;20177;-81
2022/03/14 12:13:01;;;;;;;2.65;1.05;;;18.80;50.50;;;;;;5058787;28;20189;-82
2022/03/14 12:15:43;;;;;;;1.70;1.20;;;18.90;49.90;;;;;;5067343;28;20221;-81
2022/03/14 12:18:25;;;;;;;1.40;0.90;;;18.90;50.40;;;;;;5050763;28;20679;-81
2022/03/14 12:20:51;;;;;;;3.92;1.52;;;18.30;51.60;;;;;;5046086;28;20607;-81
2022/03/14 12:23:22;;;;;;;2.85;1.30;;;18.20;50.30;;;;;;5064091;28;20242;-82
2022/03/14 12:25:48;;;;;;;1.58;1.10;;;18.40;51.80;;;;;;5049056;28;20216;-81
2022/03/14 12:28:29;;;;;;;1.30;1.00;;;17.40;51.80;;;;;;5047943;28;20177;-82
2022/03/14 12:31:16;;;;;;;1.55;0.90;;;17.20;51.50;;;;;;5051251;28;20437;-81
2022/03/14 12:33:43;;;;;;;1.35;0.80;;;17.00;51.60;;;;;;5050217;28;20183;-82
2022/03/14 12:36:22;;;;;;;2.10;0.95;;;17.50;52.40;;;;;;5050166;28;20507;-81
2022/03/14 12:39:06;;;;;;;1.23;0.90;;;17.90;53.30;;;;;;5065560;28;20186;-82
2022/03/14 12:41:33;;;;;;;1.80;0.90;;;18.00;51.80;;;;;;5057756;28;20191;-81
2022/03/14 12:43:58;;;;;;;2.30;1.00;;;17.80;52.20;;;;;;5064545;28;20195;-84